createdAt,value
2019-01-02T00:03:43.281Z,97222.24
2019-01-02T00:09:01.377Z,97219.64
2019-01-02T00:14:21.673Z,97237.91
2019-01-02T00:19:39.938Z,97265.90
2019-01-02T00:24:58.449Z,97287.77
2019-01-02T00:30:17.426Z,97285.92
2019-01-02T00:35:35.880Z,97304.98
2019-01-02T00:40:54.798Z,97293.30
2019-01-02T00:46:13.198Z,97317.83
2019-01-02T00:51:32.314Z,97298.76
2019-01-02T00:56:50.911Z,97302.32
2019-01-02T01:02:11.185Z,97307.37
2019-01-02T01:07:31.393Z,97296.70
2019-01-02T01:12:52.715Z,97302.15
2019-01-02T01:18:11.125Z,97328.56
2019-01-02T01:23:29.417Z,97288.15
2019-01-02T01:28:48.673Z,97293.36
2019-01-02T01:34:07.566Z,97291.90
2019-01-02T01:39:25.613Z,97292.48
2019-01-02T01:44:44.422Z,97295.63
2019-01-02T01:50:02.533Z,97310.28
2019-01-02T01:55:22.499Z,97295.84
2019-01-02T02:00:42.649Z,97312.48
2019-01-02T02:06:02.349Z,97297.97
2019-01-02T02:11:22.898Z,97304.25
2019-01-02T02:16:42.614Z,97326.67
2019-01-02T02:22:02.323Z,97333.77
2019-01-02T02:27:22.085Z,97304.08
2019-01-02T02:32:43.391Z,97330.45
2019-01-02T02:38:03.701Z,97317.64
2019-01-02T02:43:23.026Z,97311.43
2019-01-02T02:48:41.914Z,97297.33
2019-01-02T02:54:00.156Z,97306.58
2019-01-02T02:59:19.174Z,97299.93
2019-01-02T03:04:37.856Z,97297.81
2019-01-02T03:09:56.359Z,97272.16
2019-01-02T03:15:14.483Z,97287.72
2019-01-02T03:20:32.690Z,97279.92
2019-01-02T03:25:51.695Z,97281.45
2019-01-02T03:31:11.305Z,97279.64
2019-01-02T03:36:30.987Z,97272.91
2019-01-02T03:41:50.526Z,97275.98
2019-01-02T03:47:09.458Z,97279.14
2019-01-02T03:52:27.920Z,97270.03
2019-01-02T03:57:46.836Z,97287.88
2019-01-02T04:03:07.228Z,97281.09
2019-01-02T04:08:25.160Z,97278.36
2019-01-02T04:13:44.512Z,97304.14
2019-01-02T04:19:02.796Z,97291.56
2019-01-02T04:24:21.446Z,97283.92
2019-01-02T04:29:42.615Z,97303.13
2019-01-02T04:34:58.731Z,97300.16
2019-01-02T04:40:16.999Z,97291.78
2019-01-02T04:45:35.848Z,97298.86
2019-01-02T04:50:54.603Z,97289.42
2019-01-02T04:56:13.395Z,97275.82
2019-01-02T05:01:32.618Z,97296.34
2019-01-02T05:06:51.648Z,97310.17
2019-01-02T05:12:09.961Z,97322.06
2019-01-02T05:17:27.781Z,97313.70
2019-01-02T05:22:44.860Z,97323.92
2019-01-02T05:28:02.264Z,97360.05
2019-01-02T05:33:19.821Z,97360.11
2019-01-02T05:38:38.279Z,97356.77
2019-01-02T05:43:55.983Z,97384.59
2019-01-02T05:49:13.903Z,97379.19
2019-01-02T05:54:31.666Z,97392.66
2019-01-02T05:59:49.289Z,97401.75
2019-01-02T06:05:06.837Z,97389.63
2019-01-02T06:10:24.011Z,97432.42
2019-01-02T06:15:42.375Z,97418.66
2019-01-02T06:20:59.890Z,97427.94
2019-01-02T06:26:17.141Z,97416.70
2019-01-02T06:31:34.411Z,97424.05
2019-01-02T06:36:52.314Z,97429.11
2019-01-02T06:42:10.691Z,97432.86
2019-01-02T06:47:27.636Z,97423.95
2019-01-02T06:52:45.325Z,97434.36
2019-01-02T06:58:02.984Z,97444.17
2019-01-02T07:03:20.395Z,97446.00
2019-01-02T07:08:38.082Z,97437.16
2019-01-02T07:13:55.536Z,97444.30
2019-01-02T07:19:12.682Z,97449.52
2019-01-02T07:24:30.572Z,97455.23
2019-01-02T07:29:47.904Z,97464.84
2019-01-02T07:35:37.152Z,97475.91
2019-01-02T07:41:14.151Z,97476.50
2019-01-02T07:46:53.771Z,97483.52
2019-01-02T07:52:30.279Z,97488.68
2019-01-02T07:57:53.785Z,97462.32
2019-01-02T08:03:26.404Z,97479.59
2019-01-02T08:09:03.054Z,97475.78
2019-01-02T08:14:43.293Z,97472.95
2019-01-02T08:20:10.165Z,97475.83
2019-01-02T08:25:56.281Z,97498.50
2019-01-02T08:31:22.491Z,97472.35
2019-01-02T08:36:46.536Z,97479.52
2019-01-02T08:42:26.270Z,97491.31
2019-01-02T08:48:05.985Z,97487.28
2019-01-02T08:53:43.916Z,97484.69
2019-01-02T08:59:08.577Z,97491.89
2019-01-02T09:04:29.404Z,97498.60
2019-01-02T09:10:05.913Z,97491.05
2019-01-02T09:15:38.883Z,97492.63
2019-01-02T09:21:18.705Z,97504.52
2019-01-02T09:27:09.093Z,97501.37
2019-01-02T09:32:40.559Z,97512.77
2019-01-02T09:38:34.003Z,97504.42
2019-01-02T09:44:15.955Z,97522.36
2019-01-02T09:50:01.816Z,97535.16
2019-01-02T09:56:11.270Z,97536.04
2019-01-02T10:02:06.563Z,97526.19
2019-01-02T10:07:54.061Z,97508.80
2019-01-02T10:14:02.207Z,97505.11
2019-01-02T10:20:14.424Z,97494.00
2019-01-02T10:26:09.155Z,97494.73
2019-01-02T10:32:27.712Z,97495.55
2019-01-02T10:38:18.107Z,97489.28
2019-01-02T10:43:50.264Z,97474.33
2019-01-02T10:49:45.496Z,97481.44
2019-01-02T10:55:55.468Z,97450.56
2019-01-02T11:01:58.830Z,97457.23
2019-01-02T11:08:04.355Z,97435.25
2019-01-02T11:14:14.356Z,97407.84
2019-01-02T11:19:56.515Z,97408.40
2019-01-02T11:25:53.109Z,97435.67
2019-01-02T11:31:55.495Z,97423.58
2019-01-02T11:37:35.620Z,97419.09
2019-01-02T11:43:08.482Z,97421.16
2019-01-02T11:48:25.638Z,97460.79
2019-01-02T11:53:43.349Z,97486.69
2019-01-02T11:59:00.959Z,97491.14
2019-01-02T12:04:18.481Z,97481.14
2019-01-02T12:09:35.771Z,97491.84
2019-01-02T12:14:54.774Z,97502.27
2019-01-02T12:20:12.116Z,97478.13
2019-01-02T12:25:30.901Z,97466.48
2019-01-02T12:30:48.292Z,97468.16
2019-01-02T12:36:05.750Z,97480.00
2019-01-02T12:41:23.442Z,97486.53
2019-01-02T12:46:42.252Z,97497.95
2019-01-02T12:51:59.750Z,97490.75
2019-01-02T12:57:17.311Z,97505.07
2019-01-02T13:03:22.974Z,97505.48
2019-01-02T13:09:20.807Z,97513.64
2019-01-02T13:15:26.817Z,97516.87
2019-01-02T13:20:54.975Z,97528.67
2019-01-02T13:26:20.239Z,97550.57
2019-01-02T13:32:15.233Z,97551.39
2019-01-02T13:38:04.084Z,97574.73
2019-01-02T13:43:49.244Z,97585.07
2019-01-02T13:49:42.988Z,97598.33
2019-01-02T13:55:06.334Z,97595.30
2019-01-02T14:00:25.307Z,97618.27
2019-01-02T14:05:44.977Z,97621.69
2019-01-02T14:11:03.238Z,97629.07
2019-01-02T14:16:21.304Z,97613.48
2019-01-02T14:21:39.724Z,97634.88
2019-01-02T14:26:57.324Z,97636.14
2019-01-02T14:32:14.466Z,97641.95
2019-01-02T14:37:32.108Z,97631.19
2019-01-02T14:42:49.561Z,97629.59
2019-01-02T14:48:06.984Z,97635.95
2019-01-02T14:53:24.702Z,97656.14
2019-01-02T14:58:42.820Z,97643.34
2019-01-02T15:04:01.299Z,97642.61
2019-01-02T15:09:18.772Z,97640.94
2019-01-02T15:14:36.774Z,97643.88
2019-01-02T15:19:54.286Z,97659.17
2019-01-02T15:25:12.572Z,97665.44
2019-01-02T15:30:31.751Z,97663.50
2019-01-02T15:35:49.254Z,97682.59
2019-01-02T15:41:07.160Z,97688.09
2019-01-02T15:46:25.587Z,97689.56
2019-01-02T15:51:43.771Z,97714.40
2019-01-02T15:57:01.137Z,97728.79
2019-01-02T16:02:18.825Z,97747.02
2019-01-02T16:07:36.571Z,97731.22
2019-01-02T16:12:54.221Z,97739.29
2019-01-02T16:18:11.905Z,97752.51
2019-01-02T16:23:29.346Z,97777.63
2019-01-02T16:28:48.029Z,97765.61
2019-01-02T16:34:05.285Z,97776.19
2019-01-02T16:39:22.578Z,97784.83
2019-01-02T16:44:40.930Z,97790.34
2019-01-02T16:49:58.748Z,97807.36
2019-01-02T16:55:17.601Z,97829.68
2019-01-02T17:00:35.429Z,97832.75
2019-01-02T17:05:53.010Z,97837.81
2019-01-02T17:11:10.715Z,97839.32
2019-01-02T17:16:28.993Z,97834.84
2019-01-02T17:21:47.118Z,97849.81
2019-01-02T17:27:06.814Z,97866.40
2019-01-02T17:32:25.144Z,97875.73
2019-01-02T17:37:43.834Z,97863.18
2019-01-02T17:43:01.194Z,97883.13
2019-01-02T17:48:19.040Z,97898.13
2019-01-02T17:53:37.291Z,97890.70
2019-01-02T17:58:55.390Z,97906.05
2019-01-02T18:04:13.220Z,97922.41
2019-01-02T18:09:33.962Z,97937.06
2019-01-02T18:14:51.889Z,97955.19
2019-01-02T18:20:10.276Z,97958.30
2019-01-02T18:25:27.674Z,97973.94
2019-01-02T18:30:45.332Z,97970.95
2019-01-02T18:36:03.571Z,97978.84
2019-01-02T18:41:21.156Z,97983.46
2019-01-02T18:46:39.187Z,97984.83
2019-01-02T18:51:57.387Z,98001.27
2019-01-02T18:57:20.114Z,98001.95
2019-01-02T19:02:40.779Z,98013.72
2019-01-02T19:07:59.168Z,98011.14
2019-01-02T19:13:17.375Z,98027.53
2019-01-02T19:18:35.646Z,98030.55
2019-01-02T19:23:53.810Z,98046.33
2019-01-02T19:29:11.923Z,98064.05
2019-01-02T19:34:30.683Z,98116.78
2019-01-02T19:39:48.441Z,98092.08
2019-01-02T19:45:07.589Z,98114.02
2019-01-02T19:50:25.250Z,98110.02
2019-01-02T19:55:43.096Z,98118.27
2019-01-02T20:01:00.811Z,98103.41
2019-01-02T20:06:19.610Z,98106.72
2019-01-02T20:11:38.555Z,98104.62
2019-01-02T20:16:56.858Z,98103.70
2019-01-02T20:22:14.441Z,98108.20
2019-01-02T20:27:32.528Z,98113.67
2019-01-02T20:32:50.270Z,98114.23
2019-01-02T20:38:10.329Z,98116.14
2019-01-02T20:43:27.811Z,98115.89
2019-01-02T20:48:46.208Z,98115.52
2019-01-02T20:54:05.302Z,98117.61
2019-01-02T20:59:22.702Z,98130.03
2019-01-02T21:04:40.354Z,98128.47
2019-01-02T21:10:01.937Z,98128.91
2019-01-02T21:15:20.397Z,98124.91
2019-01-02T21:20:39.329Z,98131.48
2019-01-02T21:25:57.090Z,98122.05
2019-01-02T21:31:14.622Z,98115.17
2019-01-02T21:36:32.070Z,98107.42
2019-01-02T21:41:50.646Z,98117.72
2019-01-02T21:47:08.517Z,98113.41
2019-01-02T21:52:26.845Z,98113.89
2019-01-02T21:57:44.745Z,98101.72
2019-01-02T22:03:03.724Z,98103.79
2019-01-02T22:08:20.333Z,98097.06
2019-01-02T22:13:38.090Z,98084.62
2019-01-02T22:18:55.530Z,98084.55
2019-01-02T22:24:13.684Z,98091.27
2019-01-02T22:29:31.298Z,98095.55
2019-01-02T22:34:50.262Z,98090.35
2019-01-02T22:40:08.210Z,98090.18
2019-01-02T22:45:30.056Z,98093.40
2019-01-02T22:50:48.380Z,98102.05
2019-01-02T22:56:06.865Z,98110.44
2019-01-02T23:01:35.201Z,98122.50
2019-01-02T23:07:09.202Z,98128.22
2019-01-02T23:12:52.957Z,98137.08
2019-01-02T23:24:34.112Z,98125.52
2019-01-02T23:30:17.561Z,98150.86
2019-01-02T23:36:01.354Z,98139.80
2019-01-02T23:41:50.674Z,98160.09
2019-01-02T23:47:24.323Z,98172.58
2019-01-02T23:53:05.280Z,98175.59
2019-01-02T23:58:40.827Z,98194.80
